Time;durP1;ratioP1;P1;durP2;ratioP2;P2;SDS_P1;SDS_P2;PMS_P1;PMS_P2;Temp;Humidity;BMP_temperature;BMP_pressure;BME280_temperature;BME280_humidity;BME280_pressure;Samples;Min_cycle;Max_cycle;Signal;HPM_P1;HPM_P2
2022/01/29 00:00:32;;;;;;;;;;;;;;;4.61;65.72;99534.47;4961909;28;1223;-93
2022/01/29 00:02:58;;;;;;;;;;;;;;;4.60;65.63;99532.03;4961789;28;1873;-92
2022/01/29 00:05:25;;;;;;;;;;;;;;;4.60;65.66;99510.69;4943676;28;1219;-92
2022/01/29 00:07:51;;;;;;;;;;;;;;;4.60;65.63;99521.34;4970202;28;1910;-92
2022/01/29 00:10:18;;;;;;;;;;;;;;;4.59;65.74;99507.19;4977514;28;2057;-92
2022/01/29 00:12:44;;;;;;;;;;;;;;;4.61;65.73;99501.66;4961285;28;1852;-93
2022/01/29 00:15:11;;;;;;;;;;;;;;;4.59;65.72;99496.53;4976462;28;1444;-92
2022/01/29 00:17:37;;;;;;;;;;;;;;;4.59;65.67;99503.69;4961365;28;1657;-92
2022/01/29 00:20:04;;;;;;;;;;;;;;;4.61;65.66;99480.31;4962852;28;1420;-92
2022/01/29 00:22:30;;;;;;;;;;;;;;;4.61;65.76;99466.97;4960585;28;1609;-91
2022/01/29 00:24:58;;;;;;;;;;;;;;;4.60;65.79;99457.34;4961749;28;1881;-93
2022/01/29 00:27:26;;;;;;;;;;;;;;;4.59;65.67;99463.69;4987628;28;1735;-93
2022/01/29 00:29:54;;;;;;;;;;;;;;;4.62;65.76;99487.28;4958392;28;1914;-92
2022/01/29 00:32:20;;;;;;;;;;;;;;;4.61;65.67;99461.63;4961279;28;1404;-93
2022/01/29 00:34:47;;;;;;;;;;;;;;;4.60;65.76;99454.69;4960320;28;1814;-92
2022/01/29 00:37:13;;;;;;;;;;;;;;;4.60;65.70;99436.00;4977056;28;1385;-92
2022/01/29 00:39:40;;;;;;;;;;;;;;;4.59;65.91;99405.00;4975908;28;1669;-93
2022/01/29 00:42:06;;;;;;;;;;;;;;;4.61;65.85;99384.31;4977273;28;1185;-90
2022/01/29 00:44:33;;;;;;;;;;;;;;;4.62;65.84;99378.78;4958549;28;1683;-93
2022/01/29 00:47:00;;;;;;;;;;;;;;;4.63;65.73;99358.25;4958142;29;1194;-92
2022/01/29 00:49:26;;;;;;;;;;;;;;;4.62;65.49;99345.91;4971934;28;1918;-92
2022/01/29 00:51:53;;;;;;;;;;;;;;;4.64;65.93;99343.88;4956301;28;1838;-92
2022/01/29 00:54:19;;;;;;;;;;;;;;;4.64;65.70;99350.03;4945325;28;1905;-92
2022/01/29 00:56:46;;;;;;;;;;;;;;;4.65;65.67;99341.00;4992613;28;1292;-92
2022/01/29 00:59:12;;;;;;;;;;;;;;;4.66;65.71;99337.31;4975466;28;1747;-92
2022/01/29 01:01:39;;;;;;;;;;;;;;;4.66;65.82;99312.50;4960519;28;1286;-93
2022/01/29 01:04:05;;;;;;;;;;;;;;;4.65;65.79;99316.19;4957001;28;1413;-92
2022/01/29 01:06:32;;;;;;;;;;;;;;;4.66;65.73;99307.97;4960499;28;1312;-91
2022/01/29 01:08:58;;;;;;;;;;;;;;;4.68;65.83;99294.44;4959761;28;1978;-90
2022/01/29 01:11:25;;;;;;;;;;;;;;;4.68;65.69;99284.56;4958766;28;1647;-93
2022/01/29 01:13:51;;;;;;;;;;;;;;;4.69;65.56;99280.88;4980314;28;1660;-90
2022/01/29 01:16:18;;;;;;;;;;;;;;;4.71;65.67;99275.34;4992886;28;1185;-93
2022/01/29 01:18:45;;;;;;;;;;;;;;;4.68;65.72;99295.25;4961842;28;2019;-91
2022/01/29 01:21:11;;;;;;;;;;;;;;;4.72;65.78;99287.63;4954803;28;2227;-92
2022/01/29 01:23:38;;;;;;;;;;;;;;;4.71;65.83;99280.69;4959821;28;1354;-91
2022/01/29 01:26:04;;;;;;;;;;;;;;;4.69;65.90;99288.88;4976437;28;1486;-91
2022/01/29 01:28:32;;;;;;;;;;;;;;;4.70;65.85;99257.69;4973830;28;1915;-93
2022/01/29 01:30:58;;;;;;;;;;;;;;;4.71;65.65;99246.81;4992286;28;1278;-91
2022/01/29 01:33:25;;;;;;;;;;;;;;;4.72;65.84;99234.28;4974563;28;1405;-92
2022/01/29 01:35:55;;;;;;;;;;;;;;;4.73;65.69;99242.06;4975688;28;1740;-92
2022/01/29 01:38:25;;;;;;;;;;;;;;;4.71;65.70;99233.47;4960502;28;1580;-92
2022/01/29 01:40:56;;;;;;;;;;;;;;;4.71;65.88;99222.00;4992158;28;1212;-92
2022/01/29 01:43:23;;;;;;;;;;;;;;;4.74;65.91;99208.22;4977491;28;2033;-92
2022/01/29 01:45:49;;;;;;;;;;;;;;;4.75;65.72;99201.84;4995194;28;1304;-91
2022/01/29 01:48:17;;;;;;;;;;;;;;;4.74;65.81;99192.22;4967658;28;1902;-91
2022/01/29 01:50:43;;;;;;;;;;;;;;;4.75;65.83;99183.19;4956190;28;1668;-92
2022/01/29 01:53:10;;;;;;;;;;;;;;;4.74;65.78;99165.56;4960890;28;1722;-91
2022/01/29 01:55:37;;;;;;;;;;;;;;;4.75;65.84;99167.19;4963080;28;1960;-92
2022/01/29 01:58:03;;;;;;;;;;;;;;;4.74;65.93;99170.88;4965657;28;1702;-92
2022/01/29 02:00:30;;;;;;;;;;;;;;;4.75;65.97;99143.16;4959409;28;1471;-92
2022/01/29 02:02:56;;;;;;;;;;;;;;;4.75;65.83;99130.66;4962009;28;2111;-92
2022/01/29 02:05:23;;;;;;;;;;;;;;;4.75;65.74;99114.63;4959058;28;1319;-93
2022/01/29 02:07:49;;;;;;;;;;;;;;;4.76;65.95;99099.44;4959119;28;1664;-92
2022/01/29 02:10:17;;;;;;;;;;;;;;;4.75;65.84;99082.63;4975963;28;1989;-92
2022/01/29 02:12:44;;;;;;;;;;;;;;;4.76;65.80;99075.44;4959540;28;1772;-93
2022/01/29 02:15:10;;;;;;;;;;;;;;;4.75;65.70;99079.97;4959678;28;1158;-93
2022/01/29 02:17:37;;;;;;;;;;;;;;;4.77;65.75;99074.44;4975231;28;1827;-92
2022/01/29 02:20:04;;;;;;;;;;;;;;;4.77;65.85;99064.56;4955244;28;1658;-92
2022/01/29 02:22:30;;;;;;;;;;;;;;;4.78;65.87;99052.84;4966253;28;1887;-92
2022/01/29 02:24:57;;;;;;;;;;;;;;;4.78;65.88;99054.72;4971468;28;1866;-92
2022/01/29 02:27:23;;;;;;;;;;;;;;;4.78;65.83;99047.50;4950723;29;1744;-92
2022/01/29 02:29:50;;;;;;;;;;;;;;;4.79;65.91;99048.31;4972796;28;1984;-92
2022/01/29 02:32:16;;;;;;;;;;;;;;;4.77;65.86;99042.41;4975125;28;1364;-92
2022/01/29 02:34:44;;;;;;;;;;;;;;;4.80;65.95;99033.97;4959870;28;1891;-91
2022/01/29 02:37:11;;;;;;;;;;;;;;;4.80;65.76;99031.31;4979886;28;1703;-90
2022/01/29 02:39:37;;;;;;;;;;;;;;;4.80;65.91;99023.31;4972550;28;1663;-93
2022/01/29 02:42:04;;;;;;;;;;;;;;;4.80;65.82;99014.50;4971018;28;1748;-92
2022/01/29 02:44:31;;;;;;;;;;;;;;;4.78;65.74;99006.69;4975153;28;1787;-92
2022/01/29 02:47:14;;;;;;;;;;;;;;;4.78;65.81;99002.16;4958982;28;1170;-92
2022/01/29 02:49:40;;;;;;;;;;;;;;;4.78;65.72;98990.69;4975853;28;1915;-91
2022/01/29 02:52:07;;;;;;;;;;;;;;;4.77;65.93;98967.72;4958315;28;1680;-92
2022/01/29 02:54:35;;;;;;;;;;;;;;;4.77;65.93;98944.53;4954596;28;1838;-93
2022/01/29 02:57:01;;;;;;;;;;;;;;;4.78;65.94;98938.16;4958970;28;1363;-90
2022/01/29 02:59:28;;;;;;;;;;;;;;;4.79;65.94;98928.28;4949267;28;1858;-92
2022/01/29 03:01:54;;;;;;;;;;;;;;;4.78;66.13;98926.69;4975291;28;1194;-92
2022/01/29 03:04:21;;;;;;;;;;;;;;;4.77;66.04;98925.06;4965770;28;1946;-91
2022/01/29 03:06:47;;;;;;;;;;;;;;;4.79;66.02;98925.63;4970417;28;1434;-90
2022/01/29 03:09:14;;;;;;;;;;;;;;;4.76;66.07;98932.25;4957267;28;1927;-92
2022/01/29 03:11:40;;;;;;;;;;;;;;;4.77;66.04;98935.72;4970390;28;1796;-92
2022/01/29 03:14:07;;;;;;;;;;;;;;;4.80;65.98;98913.94;4975738;28;1865;-92
2022/01/29 03:16:33;;;;;;;;;;;;;;;4.77;65.84;98901.84;4974686;28;1182;-92
2022/01/29 03:19:00;;;;;;;;;;;;;;;4.78;66.11;98903.47;4973069;28;1829;-93
2022/01/29 03:21:26;;;;;;;;;;;;;;;4.80;66.04;98899.78;4959945;28;1739;-92
2022/01/29 03:23:53;;;;;;;;;;;;;;;4.80;65.84;98897.94;4977873;28;2067;-93
2022/01/29 03:26:19;;;;;;;;;;;;;;;4.81;65.92;98896.88;4962537;28;1222;-93
2022/01/29 03:28:46;;;;;;;;;;;;;;;4.81;65.99;98880.06;4962932;28;1910;-90
2022/01/29 03:31:13;;;;;;;;;;;;;;;4.81;66.19;98864.88;4980011;28;1207;-91
2022/01/29 03:33:39;;;;;;;;;;;;;;;4.79;66.20;98850.94;4976081;28;1781;-91
2022/01/29 03:36:06;;;;;;;;;;;;;;;4.78;66.21;98855.47;4981801;28;1078;-93
2022/01/29 03:38:32;;;;;;;;;;;;;;;4.80;66.18;98867.78;4958915;28;2040;-91
2022/01/29 03:41:00;;;;;;;;;;;;;;;4.79;66.14;98861.59;4951694;28;1828;-92
2022/01/29 03:43:30;;;;;;;;;;;;;;;4.81;66.16;98854.22;4959208;28;1903;-92
2022/01/29 03:45:57;;;;;;;;;;;;;;;4.82;66.02;98847.00;4959022;28;1938;-92
2022/01/29 03:48:23;;;;;;;;;;;;;;;4.81;66.19;98830.19;4960550;28;1894;-92
2022/01/29 03:50:50;;;;;;;;;;;;;;;4.81;66.23;98821.38;4960318;28;1999;-92
2022/01/29 03:53:16;;;;;;;;;;;;;;;4.81;66.07;98832.06;4977284;28;1700;-92
2022/01/29 03:55:43;;;;;;;;;;;;;;;4.81;66.20;98821.38;4975083;28;1901;-93
2022/01/29 03:58:09;;;;;;;;;;;;;;;4.81;66.21;98810.72;4951380;28;1552;-93
2022/01/29 04:00:36;;;;;;;;;;;;;;;4.79;66.31;98810.94;4960807;28;1824;-92
2022/01/29 04:03:02;;;;;;;;;;;;;;;4.79;66.36;98794.94;4960473;28;2231;-92
2022/01/29 04:05:29;;;;;;;;;;;;;;;4.78;66.42;98791.44;4974438;28;1902;-92
2022/01/29 04:07:55;;;;;;;;;;;;;;;4.81;66.35;98768.84;4972428;28;2041;-92
2022/01/29 04:10:23;;;;;;;;;;;;;;;4.81;66.13;98757.38;4957881;28;1922;-91
2022/01/29 04:12:51;;;;;;;;;;;;;;;4.80;66.31;98756.56;4960281;28;1933;-91
2022/01/29 04:15:17;;;;;;;;;;;;;;;4.82;66.26;98743.00;4966626;28;2079;-92
2022/01/29 04:17:44;;;;;;;;;;;;;;;4.81;66.22;98741.38;4958366;28;1924;-90
2022/01/29 04:20:10;;;;;;;;;;;;;;;4.81;66.39;98738.69;4952210;28;1832;-93
2022/01/29 04:22:37;;;;;;;;;;;;;;;4.81;66.38;98739.50;4954906;28;2168;-92
2022/01/29 04:25:03;;;;;;;;;;;;;;;4.82;66.14;98724.31;4960207;28;1930;-92
2022/01/29 04:27:36;;;;;;;;;;;;;;;4.80;66.34;98729.09;4960727;28;2132;-92
2022/01/29 04:30:08;;;;;;;;;;;;;;;4.82;66.26;98709.13;4959815;28;1977;-91
2022/01/29 04:32:56;;;;;;;;;;;;;;;4.82;66.31;98700.31;4958139;28;1942;-91
2022/01/29 04:35:21;;;;;;;;;;;;;;;4.79;66.30;98680.22;4952953;28;1933;-90
2022/01/29 04:37:49;;;;;;;;;;;;;;;4.81;66.25;98680.03;4959307;28;1835;-93
2022/01/29 04:40:16;;;;;;;;;;;;;;;4.81;66.55;98662.16;4954897;28;1847;-92
2022/01/29 04:42:42;;;;;;;;;;;;;;;4.82;66.26;98645.09;4958722;28;2132;-93
2022/01/29 04:45:09;;;;;;;;;;;;;;;4.81;66.20;98624.81;4959191;28;2004;-92
2022/01/29 04:47:35;;;;;;;;;;;;;;;4.80;66.55;98617.06;4954699;28;1886;-92
2022/01/29 04:50:02;;;;;;;;;;;;;;;4.78;66.75;98626.09;4959135;28;2060;-93
2022/01/29 04:52:28;;;;;;;;;;;;;;;4.81;66.46;98622.16;4959231;28;2199;-92
2022/01/29 04:54:55;;;;;;;;;;;;;;;4.81;66.63;98627.47;4958191;28;2109;-93
2022/01/29 04:57:22;;;;;;;;;;;;;;;4.81;66.43;98618.69;4959684;28;1957;-93
2022/01/29 04:59:48;;;;;;;;;;;;;;;4.82;66.17;98625.63;4957192;28;2203;-90
2022/01/29 05:02:15;;;;;;;;;;;;;;;4.82;66.35;98622.97;4959785;28;1984;-91
2022/01/29 05:04:41;;;;;;;;;;;;;;;4.82;66.32;98607.75;4960084;28;1756;-92
2022/01/29 05:07:08;;;;;;;;;;;;;;;4.82;66.57;98604.28;4956296;28;1906;-92
2022/01/29 05:09:35;;;;;;;;;;;;;;;4.81;66.62;98595.47;4958160;28;1970;-91
2022/01/29 05:12:02;;;;;;;;;;;;;;;4.83;66.52;98588.06;4958961;28;1897;-92
2022/01/29 05:14:37;;;;;;;;;;;;;;;4.83;66.63;98581.94;4958287;28;2155;-92
2022/01/29 05:26:49;;;;;;;;;;;;;;;4.83;66.36;98585.41;4967947;28;2147;-91
2022/01/29 05:28:17;;;;;;;;;;;;;;;4.81;66.58;98573.34;4957637;28;2026;-91
2022/01/29 05:30:44;;;;;;;;;;;;;;;4.80;66.64;98558.38;4958426;28;1993;-91
2022/01/29 05:33:10;;;;;;;;;;;;;;;4.81;66.55;98560.00;4953422;28;2241;-91
2022/01/29 05:35:37;;;;;;;;;;;;;;;4.80;66.54;98534.38;4972508;28;1893;-90
2022/01/29 05:38:03;;;;;;;;;;;;;;;4.80;66.46;98537.84;4957733;28;1930;-92
2022/01/29 05:40:30;;;;;;;;;;;;;;;4.80;66.74;98537.03;4957961;28;1906;-92
2022/01/29 05:42:56;;;;;;;;;;;;;;;4.81;66.65;98533.31;4972269;28;1473;-92
2022/01/29 05:45:23;;;;;;;;;;;;;;;4.81;66.55;98522.66;4974855;28;1405;-92
2022/01/29 05:47:49;;;;;;;;;;;;;;;4.81;66.52;98536.81;4957459;28;1782;-92
2022/01/29 05:50:16;;;;;;;;;;;;;;;4.82;66.64;98534.94;4959424;28;1907;-92
2022/01/29 05:52:42;;;;;;;;;;;;;;;4.81;66.61;98538.66;4959248;28;1891;-92
2022/01/29 05:55:09;;;;;;;;;;;;;;;4.80;66.66;98516.50;4958433;28;1659;-93
2022/01/29 05:57:36;;;;;;;;;;;;;;;4.80;66.83;98494.38;4954714;28;1683;-91
2022/01/29 06:00:02;;;;;;;;;;;;;;;4.81;66.82;98480.78;4972571;28;1887;-92
2022/01/29 06:02:29;;;;;;;;;;;;;;;4.81;66.75;98470.13;4959494;28;1210;-91
2022/01/29 06:04:55;;;;;;;;;;;;;;;4.81;66.87;98477.31;4953739;28;1860;-91
2022/01/29 06:07:22;;;;;;;;;;;;;;;4.81;66.84;98466.66;4952905;28;2227;-92
2022/01/29 06:09:49;;;;;;;;;;;;;;;4.80;66.86;98457.84;4950847;28;1992;-92
2022/01/29 06:12:15;;;;;;;;;;;;;;;4.81;66.83;98450.66;4959236;28;1975;-92
2022/01/29 06:14:42;;;;;;;;;;;;;;;4.80;66.99;98444.50;4955857;28;1887;-92
2022/01/29 06:17:08;;;;;;;;;;;;;;;4.82;67.06;98410.38;4957326;28;1661;-92
2022/01/29 06:19:35;;;;;;;;;;;;;;;4.82;67.02;98406.91;4975189;28;1590;-92
2022/01/29 06:22:07;;;;;;;;;;;;;;;4.80;66.88;98404.50;4951762;28;1674;-92
2022/01/29 06:24:33;;;;;;;;;;;;;;;4.80;66.87;98385.81;4953364;28;1655;-93
2022/01/29 06:27:00;;;;;;;;;;;;;;;4.81;66.88;98366.09;4965882;28;2123;-93
2022/01/29 06:29:26;;;;;;;;;;;;;;;4.81;66.84;98379.44;4965829;28;1989;-92
2022/01/29 06:31:53;;;;;;;;;;;;;;;4.82;66.94;98393.56;4957965;28;1635;-92
2022/01/29 06:34:19;;;;;;;;;;;;;;;4.81;66.85;98394.63;4976600;28;1641;-92
2022/01/29 06:36:45;;;;;;;;;;;;;;;4.81;66.94;98399.97;4954706;28;1404;-92
2022/01/29 06:39:12;;;;;;;;;;;;;;;4.80;66.93;98364.50;4958443;28;1743;-92
2022/01/29 06:41:38;;;;;;;;;;;;;;;4.82;66.87;98356.22;4958515;28;1789;-92
2022/01/29 06:44:05;;;;;;;;;;;;;;;4.81;66.99;98368.75;4954197;28;1888;-92
2022/01/29 06:46:31;;;;;;;;;;;;;;;4.81;66.91;98343.97;4944521;29;1883;-92
2022/01/29 06:48:58;;;;;;;;;;;;;;;4.80;66.98;98326.34;4946312;28;1720;-92
2022/01/29 06:51:24;;;;;;;;;;;;;;;4.81;67.14;98328.75;4953619;29;1899;-92
2022/01/29 06:53:51;;;;;;;;;;;;;;;4.80;66.89;98313.81;4948346;28;1678;-92
2022/01/29 06:56:17;;;;;;;;;;;;;;;4.80;67.03;98305.00;4952938;28;1494;-92
2022/01/29 06:58:44;;;;;;;;;;;;;;;4.80;67.01;98308.47;4958632;28;1400;-92
2022/01/29 07:01:10;;;;;;;;;;;;;;;4.80;66.93;98311.16;4940392;29;2087;-92
2022/01/29 07:03:37;;;;;;;;;;;;;;;4.83;67.01;98299.19;4946399;28;1604;-92
2022/01/29 07:06:04;;;;;;;;;;;;;;;4.81;66.92;98274.63;4949694;28;2185;-92
2022/01/29 07:08:33;;;;;;;;;;;;;;;4.80;67.03;98273.81;4956618;28;2015;-92
2022/01/29 07:11:00;;;;;;;;;;;;;;;4.80;66.93;98273.81;4959270;28;1911;-92
2022/01/29 07:13:27;;;;;;;;;;;;;;;4.79;67.07;98256.16;4958279;29;1395;-93
2022/01/29 07:15:53;;;;;;;;;;;;;;;4.80;67.03;98241.81;4945678;29;1821;-92
2022/01/29 07:18:20;;;;;;;;;;;;;;;4.80;67.02;98235.66;4939195;29;1723;-92
2022/01/29 07:20:48;;;;;;;;;;;;;;;4.80;66.94;98217.00;4965330;28;1431;-93
2022/01/29 07:23:14;;;;;;;;;;;;;;;4.81;67.04;98226.59;4940758;29;1656;-92
2022/01/29 07:25:41;;;;;;;;;;;;;;;4.80;66.96;98214.34;4948319;29;2028;-93
2022/01/29 07:28:07;;;;;;;;;;;;;;;4.78;67.06;98194.03;4958160;29;1840;-92
2022/01/29 07:30:34;;;;;;;;;;;;;;;4.81;66.93;98175.94;4954403;28;1911;-93
2022/01/29 07:33:00;;;;;;;;;;;;;;;4.80;66.99;98159.13;4968791;28;1332;-91
2022/01/29 07:35:27;;;;;;;;;;;;;;;4.81;66.95;98151.94;4941425;28;1531;-92
2022/01/29 07:37:53;;;;;;;;;;;;;;;4.80;67.10;98140.47;4956891;28;1710;-92
2022/01/29 07:40:20;;;;;;;;;;;;;;;4.81;67.01;98120.72;4954993;28;1371;-92
2022/01/29 07:42:46;;;;;;;;;;;;;;;4.80;67.26;98118.31;4958416;28;1367;-92
2022/01/29 07:45:13;;;;;;;;;;;;;;;4.80;66.86;98111.13;4943260;28;1384;-92
2022/01/29 07:47:40;;;;;;;;;;;;;;;4.81;66.91;98112.72;4985111;28;1916;-92
2022/01/29 07:50:06;;;;;;;;;;;;;;;4.81;67.17;98102.06;4961307;28;1975;-92
2022/01/29 07:52:33;;;;;;;;;;;;;;;4.81;67.04;98093.25;4960596;28;1703;-92
2022/01/29 07:54:59;;;;;;;;;;;;;;;4.80;66.84;98092.47;4959256;28;1929;-91
2022/01/29 07:57:25;;;;;;;;;;;;;;;4.80;67.04;98078.31;4960568;28;1668;-92
2022/01/29 07:59:52;;;;;;;;;;;;;;;4.81;66.95;98066.59;4959575;28;1893;-92
2022/01/29 08:02:19;;;;;;;;;;;;;;;4.80;67.15;98060.47;4974583;28;1517;-93
2022/01/29 08:04:45;;;;;;;;;;;;;;;4.80;66.99;98065.78;4957544;28;1837;-94
2022/01/29 08:07:12;;;;;;;;;;;;;;;4.81;66.85;98059.41;4960704;28;1480;-93
2022/01/29 08:09:38;;;;;;;;;;;;;;;4.81;66.99;98054.06;4960897;28;1651;-92
2022/01/29 08:12:05;;;;;;;;;;;;;;;4.83;66.80;98048.50;4961220;28;1327;-93
2022/01/29 08:14:31;;;;;;;;;;;;;;;4.82;66.98;98039.66;4953588;28;1663;-93
2022/01/29 08:16:58;;;;;;;;;;;;;;;4.82;67.01;98052.19;4960588;28;1966;-91
2022/01/29 08:19:24;;;;;;;;;;;;;;;4.81;67.12;98046.06;4953851;28;1982;-92
2022/01/29 08:21:51;;;;;;;;;;;;;;;4.82;67.00;98034.34;4942402;29;1324;-93
2022/01/29 08:24:17;;;;;;;;;;;;;;;4.82;67.10;98031.66;4966107;28;1597;-92
2022/01/29 08:26:44;;;;;;;;;;;;;;;4.83;67.21;98013.81;4954320;29;1621;-92
2022/01/29 08:29:10;;;;;;;;;;;;;;;4.80;67.03;97971.66;4951439;28;1600;-92
2022/01/29 08:31:37;;;;;;;;;;;;;;;4.80;67.06;97961.78;4963798;28;1971;-93
2022/01/29 08:34:05;;;;;;;;;;;;;;;4.81;67.33;97947.38;4963867;28;1842;-91
2022/01/29 08:36:31;;;;;;;;;;;;;;;4.81;67.22;97914.59;4972361;28;1692;-94
2022/01/29 08:38:58;;;;;;;;;;;;;;;4.80;67.26;97916.44;4955815;28;1488;-92
2022/01/29 08:41:24;;;;;;;;;;;;;;;4.81;67.35;97906.59;4964130;28;1600;-90
2022/01/29 08:43:51;;;;;;;;;;;;;;;4.80;67.35;97884.44;4958773;28;2192;-92
2022/01/29 08:46:17;;;;;;;;;;;;;;;4.82;67.14;97884.19;4957589;28;1453;-93
2022/01/29 08:48:44;;;;;;;;;;;;;;;4.82;67.37;97862.84;4966098;28;2093;-92
2022/01/29 08:51:11;;;;;;;;;;;;;;;4.82;67.43;97850.31;4960515;28;1899;-91
2022/01/29 08:53:37;;;;;;;;;;;;;;;4.81;67.23;97856.72;4961050;28;1901;-91
2022/01/29 08:56:04;;;;;;;;;;;;;;;4.82;67.31;97868.19;4960953;28;1503;-91
2022/01/29 08:58:31;;;;;;;;;;;;;;;4.82;67.43;97876.19;4957986;28;1897;-94
2022/01/29 09:00:57;;;;;;;;;;;;;;;4.83;67.36;97880.47;4956926;28;1537;-93
2022/01/29 09:03:24;;;;;;;;;;;;;;;4.83;67.34;97886.63;4966111;28;1918;-91
2022/01/29 09:05:50;;;;;;;;;;;;;;;4.82;67.23;97854.84;4978691;28;1709;-94
2022/01/29 09:08:17;;;;;;;;;;;;;;;4.83;67.34;97848.47;4981533;28;1927;-92
2022/01/29 09:10:43;;;;;;;;;;;;;;;4.82;67.35;97844.97;4956936;29;1985;-92
2022/01/29 09:13:11;;;;;;;;;;;;;;;4.82;67.33;97826.31;4943377;28;1699;-92
2022/01/29 09:15:38;;;;;;;;;;;;;;;4.82;67.33;97826.31;4957830;28;2037;-92
2022/01/29 09:18:04;;;;;;;;;;;;;;;4.82;67.39;97817.50;4958540;28;2069;-93
2022/01/29 09:20:31;;;;;;;;;;;;;;;4.82;67.39;97814.84;4955247;28;2135;-92
2022/01/29 09:22:57;;;;;;;;;;;;;;;4.81;67.56;97798.03;4958798;28;2143;-93
2022/01/29 09:25:25;;;;;;;;;;;;;;;4.81;67.33;97786.56;4977025;28;1762;-92
2022/01/29 09:27:52;;;;;;;;;;;;;;;4.82;67.33;97794.31;4957861;28;1855;-93
2022/01/29 09:30:18;;;;;;;;;;;;;;;4.83;67.34;97784.47;4953552;28;2309;-92
2022/01/29 09:32:45;;;;;;;;;;;;;;;4.83;67.55;97758.59;4958961;28;2172;-92
2022/01/29 09:35:11;;;;;;;;;;;;;;;4.82;67.70;97745.50;4973956;28;2342;-92
2022/01/29 09:37:38;;;;;;;;;;;;;;;4.81;67.41;97727.91;4974915;28;2222;-92
2022/01/29 09:40:04;;;;;;;;;;;;;;;4.83;67.50;97713.28;4953303;28;1979;-93
2022/01/29 09:42:31;;;;;;;;;;;;;;;4.83;67.47;97723.94;4956829;28;2172;-92
2022/01/29 09:44:57;;;;;;;;;;;;;;;4.83;67.68;97712.47;4963530;28;1867;-94
2022/01/29 09:47:24;;;;;;;;;;;;;;;4.83;68.00;97712.47;4954917;28;2176;-93
2022/01/29 09:49:51;;;;;;;;;;;;;;;4.83;67.71;97686.59;4956153;28;1856;-92
2022/01/29 09:52:17;;;;;;;;;;;;;;;4.85;67.58;97702.34;4958373;28;2017;-93
2022/01/29 09:54:44;;;;;;;;;;;;;;;4.85;67.64;97694.34;4971406;28;2187;-94
2022/01/29 09:57:10;;;;;;;;;;;;;;;4.85;67.74;97679.13;4958615;28;2188;-93
2022/01/29 09:59:37;;;;;;;;;;;;;;;4.85;67.60;97691.66;4958163;28;1927;-94
2022/01/29 10:02:03;;;;;;;;;;;;;;;4.85;67.68;97683.66;4977314;28;2116;-93
2022/01/29 10:04:33;;;;;;;;;;;;;;;4.84;67.67;97677.53;4965779;28;1865;-92
2022/01/29 10:06:59;;;;;;;;;;;;;;;4.84;67.68;97650.06;4958481;28;2144;-93
2022/01/29 10:09:26;;;;;;;;;;;;;;;4.84;67.92;97642.88;4952898;28;2152;-93
2022/01/29 10:11:52;;;;;;;;;;;;;;;4.84;67.74;97618.06;4966439;28;1919;-92
2022/01/29 10:14:19;;;;;;;;;;;;;;;4.83;67.94;97585.28;4972366;28;1952;-92
2022/01/29 10:16:45;;;;;;;;;;;;;;;4.83;67.99;97563.94;4967321;28;2049;-93
2022/01/29 10:19:12;;;;;;;;;;;;;;;4.84;67.91;97548.75;4973961;28;1679;-93
2022/01/29 10:21:41;;;;;;;;;;;;;;;4.85;68.03;97550.34;4974256;28;1454;-91
2022/01/29 10:24:07;;;;;;;;;;;;;;;4.84;68.05;97540.72;4970226;28;1800;-92
2022/01/29 10:26:34;;;;;;;;;;;;;;;4.86;67.96;97535.97;4965740;28;1266;-91
2022/01/29 10:29:01;;;;;;;;;;;;;;;4.86;68.14;97531.44;4956964;28;1750;-92
2022/01/29 10:31:27;;;;;;;;;;;;;;;4.85;68.08;97521.00;4958306;28;1981;-93
2022/01/29 10:33:53;;;;;;;;;;;;;;;4.86;67.92;97509.28;4957891;28;1996;-93
2022/01/29 10:36:20;;;;;;;;;;;;;;;4.86;68.00;97512.75;4972094;28;1776;-91
2022/01/29 10:38:58;;;;;;;;;;;;;;;;;;;;;
2022/01/29 10:41:45;;;;;;;;;;;;;;;4.85;68.02;97471.13;4952070;28;1619;-92
2022/01/29 10:44:16;;;;;;;;;;;;;;;4.86;67.90;97462.09;4959488;28;1893;-94
2022/01/29 10:46:43;;;;;;;;;;;;;;;4.87;67.88;97468.22;4973818;28;1537;-91
2022/01/29 10:49:09;;;;;;;;;;;;;;;4.88;67.96;97446.66;4956366;28;1883;-93
2022/01/29 10:51:35;;;;;;;;;;;;;;;4.87;68.02;97461.03;4974790;28;1979;-94
2022/01/29 10:54:02;;;;;;;;;;;;;;;4.88;67.81;97435.97;4953970;28;1759;-93
2022/01/29 10:56:28;;;;;;;;;;;;;;;4.88;67.92;97427.97;4957909;28;2025;-92
2022/01/29 10:58:54;;;;;;;;;;;;;;;4.89;67.87;97412.78;4952009;28;2113;-90
2022/01/29 11:01:22;;;;;;;;;;;;;;;4.89;67.87;97388.78;4954642;28;2669;-94
2022/01/29 11:03:50;;;;;;;;;;;;;;;4.91;67.76;97373.28;4972610;28;1902;-93
2022/01/29 11:06:19;;;;;;;;;;;;;;;4.90;67.73;97334.38;4957021;28;2593;-93
2022/01/29 11:08:46;;;;;;;;;;;;;;;4.89;67.75;97317.56;4957696;28;1999;-93
2022/01/29 11:11:13;;;;;;;;;;;;;;;4.89;67.79;97320.22;4973476;28;1895;-93
2022/01/29 11:13:39;;;;;;;;;;;;;;;4.90;67.66;97313.03;4963767;28;1627;-91
2022/01/29 11:16:06;;;;;;;;;;;;;;;4.90;67.84;97292.50;4954374;28;1866;-93
2022/01/29 11:18:32;;;;;;;;;;;;;;;4.90;67.76;97286.34;4957548;28;1980;-94
2022/01/29 11:20:59;;;;;;;;;;;;;;;4.90;67.85;97292.50;4958661;28;1090;-92
2022/01/29 11:23:25;;;;;;;;;;;;;;;4.91;67.85;97277.28;4957656;28;1666;-93
2022/01/29 11:25:52;;;;;;;;;;;;;;;4.91;67.73;97255.94;4958961;28;1365;-92
2022/01/29 11:28:18;;;;;;;;;;;;;;;4.91;67.94;97246.13;4962193;28;1479;-92
2022/01/29 11:30:45;;;;;;;;;;;;;;;4.91;67.99;97245.28;4957363;28;1969;-92
2022/01/29 11:33:11;;;;;;;;;;;;;;;4.92;68.09;97236.25;4957467;28;1707;-92
2022/01/29 11:35:38;;;;;;;;;;;;;;;4.92;67.87;97234.38;4974351;28;1443;-91
2022/01/29 11:38:06;;;;;;;;;;;;;;;4.91;68.08;97223.94;4957790;28;1887;-93
2022/01/29 11:40:32;;;;;;;;;;;;;;;4.92;67.87;97202.38;4958600;28;1293;-93
2022/01/29 11:42:59;;;;;;;;;;;;;;;4.91;67.94;97183.94;4960082;28;1820;-94
2022/01/29 11:45:26;;;;;;;;;;;;;;;4.91;68.04;97155.44;4960411;28;1794;-92
2022/01/29 11:47:52;;;;;;;;;;;;;;;4.91;67.84;97142.09;4957759;28;1880;-93
2022/01/29 11:50:19;;;;;;;;;;;;;;;4.92;67.97;97148.22;4958093;29;1726;-93
2022/01/29 11:52:45;;;;;;;;;;;;;;;4.93;67.99;97139.16;4942668;28;1911;-94
2022/01/29 11:55:12;;;;;;;;;;;;;;;4.92;68.14;97135.69;4959736;28;1804;-92
2022/01/29 11:57:38;;;;;;;;;;;;;;;4.93;68.10;97109.81;4961448;28;2096;-93
2022/01/29 12:00:05;;;;;;;;;;;;;;;4.95;67.98;97097.03;4951779;28;1623;-92
2022/01/29 12:02:33;;;;;;;;;;;;;;;4.94;68.20;97082.09;4961584;28;1195;-93
2022/01/29 12:05:05;;;;;;;;;;;;;;;4.94;68.14;97064.25;4955668;28;1957;-92
2022/01/29 12:07:35;;;;;;;;;;;;;;;4.96;68.03;97053.28;4961708;28;1336;-92
2022/01/29 12:10:04;;;;;;;;;;;;;;;4.95;68.01;97046.38;4960168;28;1944;-92
2022/01/29 12:12:32;;;;;;;;;;;;;;;4.95;68.15;97017.81;4957956;29;1972;-93
2022/01/29 12:14:58;;;;;;;;;;;;;;;4.96;68.08;97007.94;4960301;28;1383;-93
2022/01/29 12:17:25;;;;;;;;;;;;;;;4.97;68.05;97031.69;4960348;28;1624;-92
2022/01/29 12:19:51;;;;;;;;;;;;;;;4.97;68.08;97002.34;4973790;28;1455;-93
2022/01/29 12:22:19;;;;;;;;;;;;;;;4.98;68.19;97014.63;4960971;28;1317;-93
2022/01/29 12:24:45;;;;;;;;;;;;;;;4.98;68.07;96987.94;4957693;29;1760;-92
2022/01/29 12:27:12;;;;;;;;;;;;;;;5.00;67.91;96985.03;4942330;29;1318;-94
2022/01/29 12:29:38;;;;;;;;;;;;;;;5.00;68.00;96971.69;4956667;28;1913;-93
2022/01/29 12:32:05;;;;;;;;;;;;;;;5.00;68.02;96942.34;4960706;28;1914;-93
2022/01/29 12:34:31;;;;;;;;;;;;;;;5.00;68.13;96918.34;4960368;28;1608;-94
2022/01/29 12:37:09;;;;;;;;;;;;;;;5.00;68.03;96900.47;4969438;28;1747;-94
2022/01/29 12:39:39;;;;;;;;;;;;;;;5.02;68.13;96892.19;4990259;28;1070;-95
2022/01/29 12:42:12;;;;;;;;;;;;;;;5.04;67.94;96870.59;4969901;28;1332;-93
2022/01/29 12:44:39;;;;;;;;;;;;;;;5.04;67.95;96882.06;4960703;28;1872;-94
2022/01/29 12:47:06;;;;;;;;;;;;;;;5.06;67.97;96876.44;4959369;28;2081;-92
2022/01/29 12:49:32;;;;;;;;;;;;;;;5.05;67.92;96866.84;4946733;29;2081;-94
2022/01/29 12:51:59;;;;;;;;;;;;;;;5.09;68.14;96849.22;4944573;28;2182;-93
2022/01/29 12:54:26;;;;;;;;;;;;;;;5.08;68.20;96831.63;4958591;28;1838;-93
2022/01/29 12:56:53;;;;;;;;;;;;;;;5.08;68.23;96818.28;4975927;28;1635;-94
2022/01/29 12:59:20;;;;;;;;;;;;;;;5.09;68.28;96793.19;4957289;28;1931;-94
2022/01/29 13:01:46;;;;;;;;;;;;;;;5.12;68.18;96766.00;4975681;28;1620;-94
2022/01/29 13:04:13;;;;;;;;;;;;;;;5.10;68.17;96755.59;4955861;28;1893;-94
2022/01/29 13:06:39;;;;;;;;;;;;;;;5.12;68.11;96758.00;4957312;28;1515;-91
2022/01/29 13:09:06;;;;;;;;;;;;;;;5.16;67.91;96743.03;4959229;28;2415;-94
2022/01/29 13:11:33;;;;;;;;;;;;;;;5.19;67.69;96719.25;4960644;28;1983;-92
2022/01/29 13:14:00;;;;;;;;;;;;;;;5.20;67.80;96706.69;4959417;28;1877;-93